createdAt,value
2023-03-16T00:00:19.006Z,65.88
2023-03-16T00:02:45.854Z,66.09
2023-03-16T00:05:16.080Z,65.97
2023-03-16T00:07:43.275Z,66.64
2023-03-16T00:10:12.501Z,66.71
2023-03-16T00:12:39.815Z,66.05
2023-03-16T00:15:07.236Z,66.79
2023-03-16T00:17:34.697Z,66.50
2023-03-16T00:20:06.913Z,66.78
2023-03-16T00:22:34.122Z,67.04
2023-03-16T00:25:01.649Z,67.65
2023-03-16T00:27:31.340Z,67.43
2023-03-16T00:29:57.934Z,67.98
2023-03-16T00:32:28.526Z,67.49
2023-03-16T00:34:55.721Z,67.80
2023-03-16T00:37:25.273Z,67.95
2023-03-16T00:39:52.783Z,68.16
2023-03-16T00:42:20.226Z,68.77
2023-03-16T00:44:47.222Z,68.90
2023-03-16T00:47:14.450Z,69.13
2023-03-16T00:49:43.670Z,69.17
2023-03-16T00:52:14.672Z,68.97
2023-03-16T00:54:44.471Z,69.25
2023-03-16T00:57:13.724Z,69.22
2023-03-16T00:59:41.044Z,69.79
2023-03-16T01:02:08.709Z,69.96
2023-03-16T01:04:36.483Z,69.55
2023-03-16T01:07:04.545Z,69.70
2023-03-16T01:09:31.607Z,69.64
2023-03-16T01:11:58.151Z,69.98
2023-03-16T01:14:24.675Z,70.50
2023-03-16T01:16:52.969Z,70.78
2023-03-16T01:19:20.020Z,70.88
2023-03-16T01:21:46.749Z,70.63
2023-03-16T01:24:13.952Z,71.04
2023-03-16T01:26:41.714Z,71.35
2023-03-16T01:29:08.309Z,71.20
2023-03-16T01:31:34.778Z,70.80
2023-03-16T01:34:04.139Z,71.35
2023-03-16T01:36:34.211Z,71.32
2023-03-16T01:39:02.616Z,71.85
2023-03-16T01:41:38.299Z,71.77
2023-03-16T01:44:05.652Z,71.41
2023-03-16T01:46:33.062Z,71.89
2023-03-16T01:49:14.625Z,71.62
2023-03-16T01:52:02.456Z,71.64
2023-03-16T01:54:45.765Z,72.07
2023-03-16T01:57:24.957Z,71.89
2023-03-16T02:00:10.186Z,72.42
2023-03-16T02:02:54.736Z,72.29
2023-03-16T02:05:47.475Z,72.88
2023-03-16T02:08:18.501Z,72.51
2023-03-16T02:10:45.887Z,72.55
2023-03-16T02:13:12.649Z,73.31
2023-03-16T02:15:39.529Z,72.62
2023-03-16T02:18:07.978Z,73.22
2023-03-16T02:20:48.438Z,72.97
2023-03-16T02:23:21.002Z,72.87
2023-03-16T02:26:03.367Z,73.08
2023-03-16T02:28:56.178Z,72.83
2023-03-16T02:31:23.135Z,73.06
2023-03-16T02:33:52.134Z,73.28
2023-03-16T02:36:20.262Z,73.87
2023-03-16T02:38:47.477Z,74.02
2023-03-16T02:41:19.332Z,73.87
2023-03-16T02:44:04.443Z,73.91
2023-03-16T02:46:37.247Z,74.68
2023-03-16T02:49:16.332Z,75.19
2023-03-16T02:51:45.774Z,75.42
2023-03-16T02:54:12.774Z,75.80
2023-03-16T02:56:40.258Z,75.55
2023-03-16T02:59:09.350Z,75.30
2023-03-16T03:01:38.873Z,76.11
2023-03-16T03:04:05.800Z,76.12
2023-03-16T03:06:32.929Z,76.90
2023-03-16T03:09:02.374Z,76.32
2023-03-16T03:11:30.057Z,76.26
2023-03-16T03:13:58.866Z,77.13
2023-03-16T03:16:28.215Z,76.54
2023-03-16T03:18:56.136Z,76.33
2023-03-16T03:21:23.995Z,77.40
2023-03-16T03:23:51.354Z,76.87
2023-03-16T03:26:18.393Z,77.24
2023-03-16T03:28:46.299Z,77.34
2023-03-16T03:31:22.919Z,77.50
2023-03-16T03:33:50.958Z,77.16
2023-03-16T03:36:17.655Z,77.45
2023-03-16T03:38:45.310Z,77.16
2023-03-16T03:41:12.713Z,77.57
2023-03-16T03:43:40.676Z,77.48
2023-03-16T03:46:12.779Z,78.44
2023-03-16T03:48:40.198Z,77.75
2023-03-16T03:51:06.762Z,78.66
2023-03-16T03:54:02.951Z,79.31
2023-03-16T03:56:46.217Z,78.77
2023-03-16T03:59:15.574Z,79.10
2023-03-16T04:02:00.698Z,79.49
2023-03-16T04:04:37.223Z,79.23
2023-03-16T04:07:04.412Z,80.29
2023-03-16T04:09:33.957Z,80.37
2023-03-16T04:12:02.483Z,80.26
2023-03-16T04:14:30.920Z,80.03
2023-03-16T04:16:59.131Z,80.50
2023-03-16T04:19:26.080Z,80.80
2023-03-16T04:21:54.545Z,80.94
2023-03-16T04:24:29.334Z,80.67
2023-03-16T04:26:55.860Z,80.82
2023-03-16T04:29:25.353Z,80.32
2023-03-16T04:31:53.833Z,81.18
2023-03-16T04:34:25.047Z,81.05
2023-03-16T04:36:54.872Z,81.21
2023-03-16T04:39:21.477Z,81.06
2023-03-16T04:41:49.950Z,81.52
2023-03-16T04:44:20.908Z,81.28
2023-03-16T04:46:49.587Z,81.40
2023-03-16T04:49:17.425Z,81.51
2023-03-16T04:51:46.524Z,81.41
2023-03-16T04:54:16.994Z,81.84
2023-03-16T04:56:46.125Z,81.78
2023-03-16T04:59:23.079Z,81.46
2023-03-16T05:02:00.571Z,81.38
2023-03-16T05:04:28.065Z,81.07
2023-03-16T05:06:54.608Z,81.42
2023-03-16T05:09:26.338Z,81.60
2023-03-16T05:11:52.948Z,81.26
2023-03-16T05:14:19.759Z,80.78
2023-03-16T05:16:57.332Z,80.90
2023-03-16T05:19:24.121Z,80.85
2023-03-16T05:21:50.626Z,80.97
2023-03-16T05:24:18.060Z,81.16
2023-03-16T05:26:44.613Z,81.11
2023-03-16T05:29:13.177Z,81.04
2023-03-16T05:31:39.783Z,81.24
2023-03-16T05:34:12.341Z,80.91
2023-03-16T05:36:39.213Z,81.62
2023-03-16T05:39:13.400Z,80.69
2023-03-16T05:41:45.574Z,81.77
2023-03-16T05:44:15.310Z,81.38
2023-03-16T05:47:01.553Z,81.07
2023-03-16T05:49:31.299Z,81.29
2023-03-16T05:51:59.534Z,81.49
2023-03-16T05:54:26.227Z,81.95
2023-03-16T05:56:52.761Z,82.38
2023-03-16T05:59:19.749Z,82.48
2023-03-16T06:01:51.871Z,82.05
2023-03-16T06:04:21.840Z,82.64
2023-03-16T06:06:48.808Z,82.58
2023-03-16T06:09:24.870Z,82.81
2023-03-16T06:11:51.790Z,82.27
2023-03-16T06:14:23.153Z,82.53
2023-03-16T06:16:51.648Z,82.17
2023-03-16T06:19:19.215Z,82.24
2023-03-16T06:21:50.817Z,83.15
2023-03-16T06:24:20.358Z,83.15
2023-03-16T06:26:49.635Z,82.66
2023-03-16T06:29:17.534Z,82.29
2023-03-16T06:31:44.715Z,82.09
2023-03-16T06:34:11.627Z,82.50
2023-03-16T06:36:39.646Z,82.71
2023-03-16T06:39:10.035Z,82.14
2023-03-16T06:41:42.743Z,82.79
2023-03-16T06:44:11.561Z,82.29
2023-03-16T06:46:44.624Z,82.64
2023-03-16T06:49:12.002Z,82.41
2023-03-16T06:51:38.563Z,82.86
2023-03-16T06:54:06.718Z,83.31
2023-03-16T06:56:38.758Z,82.96
2023-03-16T06:59:06.809Z,83.36
2023-03-16T07:01:33.878Z,83.39
2023-03-16T07:04:02.769Z,82.96
2023-03-16T07:06:31.869Z,82.98
2023-03-16T07:08:59.251Z,83.23
2023-03-16T07:11:28.295Z,82.70
2023-03-16T07:13:58.523Z,82.65
2023-03-16T07:16:26.775Z,82.46
2023-03-16T07:18:54.351Z,82.76
2023-03-16T07:21:21.675Z,82.82
2023-03-16T07:23:51.111Z,82.65
2023-03-16T07:26:23.090Z,82.42
2023-03-16T07:28:59.298Z,81.89
2023-03-16T07:31:26.622Z,82.33
2023-03-16T07:33:55.374Z,82.28
2023-03-16T07:36:33.442Z,82.11
2023-03-16T07:39:01.856Z,82.48
2023-03-16T07:41:28.446Z,83.71
2023-03-16T07:44:07.911Z,82.71
2023-03-16T07:46:34.554Z,82.82
2023-03-16T07:49:01.283Z,83.15
2023-03-16T07:51:32.328Z,82.83
2023-03-16T07:54:01.315Z,83.32
2023-03-16T07:56:42.359Z,83.17
2023-03-16T07:59:24.622Z,82.50
2023-03-16T08:01:53.178Z,83.12
2023-03-16T08:04:19.704Z,83.22
2023-03-16T08:06:53.486Z,83.17
2023-03-16T08:09:24.583Z,83.61
2023-03-16T08:11:52.146Z,83.86
2023-03-16T08:14:18.709Z,83.58
2023-03-16T08:17:04.008Z,83.67
2023-03-16T08:19:32.578Z,82.88
2023-03-16T08:22:03.892Z,82.29
2023-03-16T08:24:38.411Z,82.60
2023-03-16T08:27:06.671Z,81.84
2023-03-16T08:29:34.750Z,81.74
2023-03-16T08:32:03.531Z,80.85
2023-03-16T08:34:37.422Z,81.91
2023-03-16T08:37:04.917Z,81.34
2023-03-16T08:39:31.496Z,80.85
2023-03-16T08:41:58.129Z,80.18
2023-03-16T08:44:40.059Z,79.44
2023-03-16T08:47:06.607Z,79.26
2023-03-16T08:49:34.957Z,79.31
2023-03-16T08:52:10.435Z,79.72
2023-03-16T08:54:37.183Z,79.68
2023-03-16T08:57:04.386Z,79.03
2023-03-16T08:59:31.382Z,78.89
2023-03-16T09:02:20.430Z,78.65
2023-03-16T09:04:47.325Z,78.56
2023-03-16T09:07:39.762Z,77.22
2023-03-16T09:10:07.389Z,78.04
2023-03-16T09:12:38.113Z,77.15
2023-03-16T09:15:05.855Z,77.39
2023-03-16T09:17:33.342Z,77.74
2023-03-16T09:20:11.488Z,76.86
2023-03-16T09:22:46.948Z,76.69
2023-03-16T09:25:14.412Z,76.83
2023-03-16T09:27:40.857Z,77.54
2023-03-16T09:30:08.614Z,76.63
2023-03-16T09:32:37.280Z,77.14
2023-03-16T09:35:06.177Z,76.69
2023-03-16T09:37:44.884Z,76.94
2023-03-16T09:40:28.774Z,77.19
2023-03-16T09:43:10.847Z,76.66
2023-03-16T09:46:11.650Z,76.38
2023-03-16T09:48:41.009Z,76.21
2023-03-16T09:51:18.378Z,75.55
2023-03-16T09:53:47.244Z,74.15
2023-03-16T09:56:24.037Z,75.49
2023-03-16T09:58:50.947Z,73.97
2023-03-16T10:01:41.621Z,74.22
2023-03-16T10:04:27.928Z,74.42
2023-03-16T10:07:12.683Z,73.01
2023-03-16T10:10:06.308Z,70.37
2023-03-16T10:12:41.414Z,69.20
2023-03-16T10:15:16.720Z,69.71
2023-03-16T10:18:23.491Z,67.75
2023-03-16T10:20:53.148Z,65.10
2023-03-16T10:23:24.735Z,65.95
2023-03-16T10:25:53.575Z,64.29
2023-03-16T10:28:26.271Z,63.75
2023-03-16T10:30:58.709Z,60.45
2023-03-16T10:33:36.692Z,61.01
2023-03-16T10:36:15.624Z,60.82
2023-03-16T10:38:58.798Z,61.15
2023-03-16T10:41:50.396Z,58.67
2023-03-16T10:44:23.516Z,58.35
2023-03-16T10:46:59.351Z,58.07
2023-03-16T10:49:28.389Z,58.06
2023-03-16T10:52:03.875Z,57.99
2023-03-16T10:54:37.015Z,56.13
2023-03-16T10:57:27.219Z,55.61
2023-03-16T11:00:01.689Z,58.70
2023-03-16T11:02:34.476Z,58.03
2023-03-16T11:05:32.318Z,59.39
2023-03-16T11:08:03.794Z,56.90
2023-03-16T11:10:46.112Z,57.29
2023-03-16T11:13:22.576Z,57.04
2023-03-16T11:15:57.828Z,57.47
2023-03-16T11:18:43.659Z,57.43
2023-03-16T11:21:22.703Z,58.74
2023-03-16T11:23:56.010Z,58.46
2023-03-16T11:26:37.460Z,58.65
2023-03-16T11:29:17.812Z,57.74
2023-03-16T11:31:53.933Z,59.46
2023-03-16T11:34:29.198Z,58.24
2023-03-16T11:37:16.982Z,57.96
2023-03-16T11:40:09.826Z,58.54
2023-03-16T11:42:41.940Z,59.09
2023-03-16T11:45:28.662Z,58.64
2023-03-16T11:48:13.364Z,58.13
2023-03-16T11:50:54.052Z,58.57
2023-03-16T11:53:37.007Z,58.45
2023-03-16T11:56:45.292Z,57.66
2023-03-16T11:59:55.497Z,57.25
2023-03-16T12:02:48.420Z,57.34
2023-03-16T12:05:34.760Z,55.77
2023-03-16T12:08:09.148Z,56.18
2023-03-16T12:10:51.915Z,56.04
2023-03-16T12:13:53.294Z,55.83
2023-03-16T12:16:23.949Z,55.84
2023-03-16T12:19:03.635Z,55.05
2023-03-16T12:21:42.806Z,54.22
2023-03-16T12:24:17.190Z,53.72
2023-03-16T12:26:44.745Z,52.73
2023-03-16T12:29:26.570Z,52.36
2023-03-16T12:32:12.276Z,52.75
2023-03-16T12:34:54.929Z,51.82
2023-03-16T12:37:52.288Z,52.30
2023-03-16T12:40:35.587Z,49.52
2023-03-16T12:43:21.168Z,48.37
2023-03-16T12:46:08.856Z,48.80
2023-03-16T12:48:44.683Z,48.90
2023-03-16T12:51:11.346Z,48.74
2023-03-16T12:53:53.316Z,48.41
2023-03-16T12:56:31.525Z,49.08
2023-03-16T12:59:01.296Z,50.17
2023-03-16T13:01:38.751Z,50.77
2023-03-16T13:04:21.527Z,49.37
2023-03-16T13:06:52.065Z,48.41
2023-03-16T13:09:28.128Z,49.89
2023-03-16T13:11:59.907Z,48.55
2023-03-16T13:14:43.147Z,48.26
2023-03-16T13:17:18.861Z,47.50
2023-03-16T13:20:07.996Z,47.90
2023-03-16T13:25:43.329Z,48.90
2023-03-16T13:28:15.540Z,49.09
2023-03-16T13:30:49.443Z,46.85
2023-03-16T13:33:27.122Z,46.48
2023-03-16T13:35:56.442Z,46.55
2023-03-16T13:38:27.516Z,46.19
2023-03-16T13:41:04.820Z,46.30
2023-03-16T13:43:37.125Z,47.07
2023-03-16T13:46:20.566Z,46.49
2023-03-16T13:48:50.616Z,45.80
2023-03-16T13:51:20.752Z,46.24
2023-03-16T13:53:59.319Z,45.97
2023-03-16T13:56:33.108Z,45.04
2023-03-16T13:59:14.155Z,45.96
2023-03-16T14:01:45.140Z,45.63
2023-03-16T14:04:18.761Z,45.18
2023-03-16T14:07:00.185Z,45.50
2023-03-16T14:09:37.971Z,46.44
2023-03-16T14:12:04.896Z,45.59
2023-03-16T14:14:37.760Z,45.00
2023-03-16T14:17:20.653Z,46.12
2023-03-16T14:20:02.133Z,45.12
2023-03-16T14:22:36.966Z,45.83
2023-03-16T14:25:05.983Z,45.09
2023-03-16T14:27:43.873Z,45.44
2023-03-16T14:30:24.161Z,45.77
2023-03-16T14:33:02.230Z,45.25
2023-03-16T14:35:33.461Z,45.92
2023-03-16T14:38:33.337Z,46.54
2023-03-16T14:41:18.957Z,45.97
2023-03-16T14:43:51.972Z,45.60
2023-03-16T14:46:24.338Z,45.83
2023-03-16T14:48:50.960Z,46.08
2023-03-16T14:51:17.613Z,45.04
2023-03-16T14:53:44.769Z,44.78
2023-03-16T14:56:13.628Z,45.94
2023-03-16T14:58:41.787Z,45.38
2023-03-16T15:01:16.195Z,45.28
2023-03-16T15:03:43.475Z,45.41
2023-03-16T15:06:10.438Z,44.94
2023-03-16T15:08:44.601Z,45.93
2023-03-16T15:11:14.262Z,46.08
2023-03-16T15:13:40.715Z,45.41
2023-03-16T15:16:11.490Z,45.88
2023-03-16T15:18:39.847Z,45.68
2023-03-16T15:21:14.268Z,45.69
2023-03-16T15:23:42.903Z,45.55
2023-03-16T15:26:17.348Z,46.32
2023-03-16T15:29:11.795Z,46.86
2023-03-16T15:31:38.330Z,45.64
2023-03-16T15:34:05.143Z,46.05
2023-03-16T15:36:33.151Z,46.02
2023-03-16T15:39:01.920Z,46.36
2023-03-16T15:41:41.381Z,45.98
2023-03-16T15:44:13.560Z,45.00
2023-03-16T15:46:41.223Z,45.38
2023-03-16T15:49:08.235Z,46.18
2023-03-16T15:51:36.253Z,47.03
2023-03-16T15:54:05.930Z,47.21
2023-03-16T15:56:44.180Z,45.61
2023-03-16T15:59:20.499Z,46.19
2023-03-16T16:01:49.197Z,46.92
2023-03-16T16:04:19.948Z,46.02
2023-03-16T16:06:49.844Z,45.39
2023-03-16T16:09:16.464Z,46.01
2023-03-16T16:11:42.920Z,45.77
2023-03-16T16:14:14.806Z,45.77
2023-03-16T16:16:43.612Z,46.84
2023-03-16T16:19:15.491Z,46.28
2023-03-16T16:21:43.266Z,47.41
2023-03-16T16:24:11.959Z,46.58
2023-03-16T16:26:53.735Z,47.54
2023-03-16T16:29:27.234Z,46.85
2023-03-16T16:31:55.511Z,46.79
2023-03-16T16:34:27.233Z,47.59
2023-03-16T16:36:57.868Z,47.40
2023-03-16T16:39:24.584Z,48.09
2023-03-16T16:41:54.113Z,47.65
2023-03-16T16:44:28.125Z,48.69
2023-03-16T16:46:55.529Z,48.06
2023-03-16T16:49:33.235Z,48.42
2023-03-16T16:52:00.580Z,48.32
2023-03-16T16:54:31.230Z,49.79
2023-03-16T16:56:59.665Z,49.18
2023-03-16T16:59:31.157Z,49.48
2023-03-16T17:02:00.184Z,49.31
2023-03-16T17:04:28.953Z,49.71
2023-03-16T17:06:58.921Z,49.92
2023-03-16T17:09:27.280Z,49.74
2023-03-16T17:11:56.284Z,50.12
2023-03-16T17:14:24.075Z,50.75
2023-03-16T17:16:51.724Z,51.39
2023-03-16T17:19:23.285Z,51.64
2023-03-16T17:21:53.070Z,51.38
2023-03-16T17:24:19.571Z,51.90
2023-03-16T17:26:50.833Z,52.07
2023-03-16T17:29:21.142Z,52.15
2023-03-16T17:31:48.613Z,52.24
2023-03-16T17:34:18.972Z,52.35
2023-03-16T17:36:46.731Z,52.07
2023-03-16T17:39:21.380Z,52.57
2023-03-16T17:42:03.689Z,52.56
2023-03-16T17:44:33.551Z,52.78
2023-03-16T17:47:00.211Z,52.54
2023-03-16T17:49:28.407Z,52.41
2023-03-16T17:51:57.880Z,53.03
2023-03-16T17:54:24.637Z,52.60
2023-03-16T17:56:52.775Z,53.24
2023-03-16T17:59:22.122Z,53.55
2023-03-16T18:01:50.697Z,53.96
2023-03-16T18:04:25.972Z,54.10
2023-03-16T18:06:55.512Z,54.19
2023-03-16T18:09:22.131Z,54.69
2023-03-16T18:11:50.985Z,54.83
2023-03-16T18:14:37.141Z,54.95
2023-03-16T18:17:22.153Z,55.37
2023-03-16T18:19:49.677Z,55.80
2023-03-16T18:22:20.480Z,56.50
2023-03-16T18:24:49.665Z,56.35
2023-03-16T18:27:16.717Z,56.77
2023-03-16T18:29:44.370Z,57.09
2023-03-16T18:32:28.647Z,56.94
2023-03-16T18:34:58.167Z,57.48
2023-03-16T18:37:30.157Z,57.71
2023-03-16T18:39:56.758Z,57.78
2023-03-16T18:42:27.564Z,58.12
2023-03-16T18:44:54.204Z,58.67
2023-03-16T18:47:24.308Z,58.96
2023-03-16T18:49:54.147Z,59.30
2023-03-16T18:52:29.088Z,59.84
2023-03-16T18:54:57.686Z,60.20
2023-03-16T18:57:28.964Z,60.70
2023-03-16T18:59:55.757Z,60.67
2023-03-16T19:02:38.958Z,61.15
2023-03-16T19:05:12.848Z,61.57
2023-03-16T19:07:46.166Z,61.44
2023-03-16T19:10:23.541Z,61.98
2023-03-16T19:12:50.850Z,62.54
2023-03-16T19:15:23.016Z,62.42
2023-03-16T19:17:52.522Z,62.47
2023-03-16T19:20:37.630Z,62.62
2023-03-16T19:23:12.890Z,62.69
2023-03-16T19:25:41.617Z,63.14
2023-03-16T19:28:14.727Z,62.87
2023-03-16T19:31:02.800Z,63.14
2023-03-16T19:33:48.987Z,62.74
2023-03-16T19:36:27.592Z,62.91
2023-03-16T19:38:54.262Z,63.65
2023-03-16T19:41:30.825Z,62.93
2023-03-16T19:44:00.003Z,63.26
2023-03-16T19:46:28.843Z,63.53
2023-03-16T19:48:56.024Z,63.69
2023-03-16T19:51:25.396Z,63.49
2023-03-16T19:53:52.175Z,63.86
2023-03-16T19:56:20.913Z,63.81
2023-03-16T19:58:50.628Z,63.74
2023-03-16T20:01:37.858Z,64.13
2023-03-16T20:04:04.754Z,64.09
2023-03-16T20:06:33.266Z,64.16
2023-03-16T20:08:59.867Z,64.04
2023-03-16T20:11:29.869Z,63.91
2023-03-16T20:13:57.597Z,64.58
2023-03-16T20:16:30.576Z,64.09
2023-03-16T20:19:00.276Z,64.14
2023-03-16T20:21:29.780Z,64.33
2023-03-16T20:23:56.627Z,64.36
2023-03-16T20:26:27.420Z,64.38
2023-03-16T20:28:54.030Z,64.49
2023-03-16T20:31:26.586Z,64.10
2023-03-16T20:33:53.898Z,64.17
2023-03-16T20:36:24.802Z,64.44
2023-03-16T20:38:51.751Z,64.19
2023-03-16T20:41:26.559Z,64.20
2023-03-16T20:43:54.624Z,63.85
2023-03-16T20:46:32.271Z,64.02
2023-03-16T20:49:00.807Z,63.63
2023-03-16T20:51:28.700Z,63.89
2023-03-16T20:53:55.434Z,62.91
2023-03-16T20:56:25.362Z,63.61
2023-03-16T20:58:54.682Z,63.93
2023-03-16T21:01:23.195Z,63.79
2023-03-16T21:03:54.311Z,63.50
2023-03-16T21:06:28.620Z,63.53
2023-03-16T21:09:03.904Z,63.65
2023-03-16T21:11:38.022Z,63.35
2023-03-16T21:14:06.476Z,63.73
2023-03-16T21:16:34.000Z,64.05
2023-03-16T21:19:00.658Z,64.21
2023-03-16T21:21:29.797Z,64.52
2023-03-16T21:23:56.536Z,64.14
2023-03-16T21:26:27.784Z,64.05
2023-03-16T21:28:58.825Z,64.16
2023-03-16T21:31:26.503Z,65.21
2023-03-16T21:33:54.259Z,64.51
2023-03-16T21:36:23.481Z,64.90
2023-03-16T21:38:51.511Z,65.43
2023-03-16T21:41:18.698Z,65.14
2023-03-16T21:43:47.382Z,64.51
2023-03-16T21:46:22.365Z,65.17
2023-03-16T21:48:52.228Z,65.52
2023-03-16T21:51:22.104Z,65.77
2023-03-16T21:53:49.561Z,66.01
2023-03-16T21:56:19.792Z,65.82
2023-03-16T21:58:47.262Z,66.21
2023-03-16T22:01:23.345Z,65.56
2023-03-16T22:03:53.296Z,65.79
2023-03-16T22:06:21.799Z,66.41
2023-03-16T22:08:51.174Z,66.11
2023-03-16T22:11:23.016Z,65.90
2023-03-16T22:13:51.220Z,66.33
2023-03-16T22:16:20.357Z,66.31
2023-03-16T22:18:49.782Z,65.88
2023-03-16T22:21:49.753Z,65.92
2023-03-16T22:24:19.359Z,65.60
2023-03-16T22:26:46.794Z,66.39
2023-03-16T22:29:26.392Z,66.51
2023-03-16T22:31:58.530Z,65.80
2023-03-16T22:34:29.800Z,66.30
2023-03-16T22:36:57.469Z,65.96
2023-03-16T22:39:24.265Z,66.45
2023-03-16T22:41:51.933Z,66.40
2023-03-16T22:44:23.203Z,67.23
2023-03-16T22:46:51.805Z,66.55
2023-03-16T22:49:24.627Z,66.52
2023-03-16T22:51:53.364Z,66.91
2023-03-16T22:54:24.057Z,66.91
2023-03-16T22:56:52.832Z,67.49
2023-03-16T22:59:23.056Z,67.25
2023-03-16T23:01:50.921Z,67.20
2023-03-16T23:04:21.686Z,66.89
2023-03-16T23:06:51.513Z,67.02
2023-03-16T23:09:20.396Z,66.64
2023-03-16T23:11:53.938Z,66.36
2023-03-16T23:14:23.148Z,66.53
2023-03-16T23:16:52.516Z,66.75
2023-03-16T23:19:32.809Z,66.75
2023-03-16T23:22:04.852Z,66.00
2023-03-16T23:24:32.943Z,66.20
2023-03-16T23:27:00.305Z,66.82
2023-03-16T23:29:27.826Z,66.11
2023-03-16T23:31:54.705Z,66.11
2023-03-16T23:34:24.250Z,66.21
2023-03-16T23:36:51.395Z,66.32
2023-03-16T23:39:18.611Z,66.77
2023-03-16T23:41:48.623Z,65.77
2023-03-16T23:44:17.730Z,66.54
2023-03-16T23:46:44.495Z,65.86
2023-03-16T23:49:18.979Z,66.13
2023-03-16T23:51:46.745Z,66.33
2023-03-16T23:54:19.046Z,66.76
2023-03-16T23:56:46.275Z,66.22
2023-03-16T23:59:12.729Z,66.76
